sensor_id;sensor_type;location;lat;lon;timestamp;temperature;humidity
24260;DHT22;12384;48.112;18.418;2023-02-28T00:01:47;-0.90;47.60
24260;DHT22;12384;48.112;18.418;2023-02-28T00:04:15;-0.90;47.60
24260;DHT22;12384;48.112;18.418;2023-02-28T00:07:00;-0.90;47.60
24260;DHT22;12384;48.112;18.418;2023-02-28T00:09:28;-0.90;47.60
24260;DHT22;12384;48.112;18.418;2023-02-28T00:11:57;-0.90;47.70
24260;DHT22;12384;48.112;18.418;2023-02-28T00:14:25;-0.90;47.60
24260;DHT22;12384;48.112;18.418;2023-02-28T00:16:53;-1.00;47.70
24260;DHT22;12384;48.112;18.418;2023-02-28T00:19:22;-1.00;47.70
24260;DHT22;12384;48.112;18.418;2023-02-28T00:21:50;-1.00;47.70
24260;DHT22;12384;48.112;18.418;2023-02-28T00:24:20;-1.00;47.70
24260;DHT22;12384;48.112;18.418;2023-02-28T00:26:48;-1.00;47.80
24260;DHT22;12384;48.112;18.418;2023-02-28T00:29:17;-1.00;47.80
24260;DHT22;12384;48.112;18.418;2023-02-28T00:31:45;-1.00;47.90
24260;DHT22;12384;48.112;18.418;2023-02-28T00:34:14;-1.00;47.90
24260;DHT22;12384;48.112;18.418;2023-02-28T00:36:43;-1.00;47.90
24260;DHT22;12384;48.112;18.418;2023-02-28T00:39:13;-1.00;47.90
24260;DHT22;12384;48.112;18.418;2023-02-28T00:41:43;-1.10;47.90
24260;DHT22;12384;48.112;18.418;2023-02-28T00:44:13;-1.00;47.90
24260;DHT22;12384;48.112;18.418;2023-02-28T00:46:43;-1.10;47.90
24260;DHT22;12384;48.112;18.418;2023-02-28T00:49:11;-1.00;48.10
24260;DHT22;12384;48.112;18.418;2023-02-28T00:51:41;-1.00;48.10
24260;DHT22;12384;48.112;18.418;2023-02-28T00:54:10;-1.00;48.20
24260;DHT22;12384;48.112;18.418;2023-02-28T00:56:38;-1.00;48.30
24260;DHT22;12384;48.112;18.418;2023-02-28T00:59:08;-1.00;48.30
24260;DHT22;12384;48.112;18.418;2023-02-28T01:01:38;-1.00;48.30
24260;DHT22;12384;48.112;18.418;2023-02-28T01:04:07;-0.90;48.40
24260;DHT22;12384;48.112;18.418;2023-02-28T01:06:36;-0.90;48.40
24260;DHT22;12384;48.112;18.418;2023-02-28T01:09:05;-0.80;48.50
24260;DHT22;12384;48.112;18.418;2023-02-28T01:11:34;-0.80;48.50
24260;DHT22;12384;48.112;18.418;2023-02-28T01:14:03;-0.80;48.40
24260;DHT22;12384;48.112;18.418;2023-02-28T01:16:33;-0.70;48.40
24260;DHT22;12384;48.112;18.418;2023-02-28T01:19:02;-0.70;48.40
24260;DHT22;12384;48.112;18.418;2023-02-28T01:21:31;-0.60;48.40
24260;DHT22;12384;48.112;18.418;2023-02-28T01:24:02;-0.60;48.90
24260;DHT22;12384;48.112;18.418;2023-02-28T01:26:31;-0.50;48.30
24260;DHT22;12384;48.112;18.418;2023-02-28T01:28:59;-0.50;48.20
24260;DHT22;12384;48.112;18.418;2023-02-28T01:31:28;-0.40;48.20
24260;DHT22;12384;48.112;18.418;2023-02-28T01:33:58;-0.40;48.20
24260;DHT22;12384;48.112;18.418;2023-02-28T01:36:28;-0.40;48.10
24260;DHT22;12384;48.112;18.418;2023-02-28T01:38:56;-0.30;48.10
24260;DHT22;12384;48.112;18.418;2023-02-28T01:41:28;-0.30;48.00
24260;DHT22;12384;48.112;18.418;2023-02-28T01:44:02;-0.30;48.00
24260;DHT22;12384;48.112;18.418;2023-02-28T01:46:34;-0.20;48.00
24260;DHT22;12384;48.112;18.418;2023-02-28T01:49:07;-0.20;47.90
24260;DHT22;12384;48.112;18.418;2023-02-28T01:51:41;-0.20;47.90
24260;DHT22;12384;48.112;18.418;2023-02-28T01:54:15;-0.20;47.80
24260;DHT22;12384;48.112;18.418;2023-02-28T01:56:48;-0.10;47.80
24260;DHT22;12384;48.112;18.418;2023-02-28T01:59:23;-0.10;47.80
24260;DHT22;12384;48.112;18.418;2023-02-28T02:01:53;-0.10;47.70
24260;DHT22;12384;48.112;18.418;2023-02-28T02:04:24;-0.10;47.70
24260;DHT22;12384;48.112;18.418;2023-02-28T02:06:55;0.00;47.70
24260;DHT22;12384;48.112;18.418;2023-02-28T02:09:23;-0.10;47.60
24260;DHT22;12384;48.112;18.418;2023-02-28T02:11:54;0.00;47.60
24260;DHT22;12384;48.112;18.418;2023-02-28T02:14:43;0.00;47.60
24260;DHT22;12384;48.112;18.418;2023-02-28T02:17:23;0.00;47.60
24260;DHT22;12384;48.112;18.418;2023-02-28T02:23:13;0.00;47.50
24260;DHT22;12384;48.112;18.418;2023-02-28T02:25:49;0.10;47.50
24260;DHT22;12384;48.112;18.418;2023-02-28T02:28:33;0.10;47.40
24260;DHT22;12384;48.112;18.418;2023-02-28T02:37:08;0.10;47.30
24260;DHT22;12384;48.112;18.418;2023-02-28T02:39:45;0.10;47.30
24260;DHT22;12384;48.112;18.418;2023-02-28T02:42:21;0.10;47.30
24260;DHT22;12384;48.112;18.418;2023-02-28T02:44:58;0.10;47.30
24260;DHT22;12384;48.112;18.418;2023-02-28T02:47:30;0.00;47.20
24260;DHT22;12384;48.112;18.418;2023-02-28T02:50:05;0.00;47.20
24260;DHT22;12384;48.112;18.418;2023-02-28T02:52:39;0.00;47.70
24260;DHT22;12384;48.112;18.418;2023-02-28T02:55:12;0.00;47.20
24260;DHT22;12384;48.112;18.418;2023-02-28T02:57:45;0.00;47.20
24260;DHT22;12384;48.112;18.418;2023-02-28T03:00:16;0.00;47.20
24260;DHT22;12384;48.112;18.418;2023-02-28T03:02:48;-0.10;47.10
24260;DHT22;12384;48.112;18.418;2023-02-28T03:05:19;-0.10;47.70
24260;DHT22;12384;48.112;18.418;2023-02-28T03:07:50;-0.10;47.10
24260;DHT22;12384;48.112;18.418;2023-02-28T03:10:31;-0.10;47.20
24260;DHT22;12384;48.112;18.418;2023-02-28T03:13:39;-0.10;47.30
24260;DHT22;12384;48.112;18.418;2023-02-28T03:16:26;-0.20;47.30
24260;DHT22;12384;48.112;18.418;2023-02-28T03:19:06;-0.20;47.30
24260;DHT22;12384;48.112;18.418;2023-02-28T03:21:42;-0.20;47.40
24260;DHT22;12384;48.112;18.418;2023-02-28T03:24:19;-0.20;47.50
24260;DHT22;12384;48.112;18.418;2023-02-28T03:26:54;-0.20;47.60
24260;DHT22;12384;48.112;18.418;2023-02-28T03:29:32;-0.20;47.70
24260;DHT22;12384;48.112;18.418;2023-02-28T03:32:05;-0.20;47.80
24260;DHT22;12384;48.112;18.418;2023-02-28T03:34:46;-0.20;47.80
24260;DHT22;12384;48.112;18.418;2023-02-28T03:37:18;-0.20;47.90
24260;DHT22;12384;48.112;18.418;2023-02-28T03:39:55;-0.20;48.00
24260;DHT22;12384;48.112;18.418;2023-02-28T03:42:27;-0.20;48.00
24260;DHT22;12384;48.112;18.418;2023-02-28T03:44:59;-0.20;48.10
24260;DHT22;12384;48.112;18.418;2023-02-28T03:47:31;-0.20;48.10
24260;DHT22;12384;48.112;18.418;2023-02-28T03:50:06;-0.20;48.20
24260;DHT22;12384;48.112;18.418;2023-02-28T03:52:41;-0.20;48.20
24260;DHT22;12384;48.112;18.418;2023-02-28T03:55:14;-0.20;48.20
24260;DHT22;12384;48.112;18.418;2023-02-28T03:57:51;-0.20;48.20
24260;DHT22;12384;48.112;18.418;2023-02-28T04:00:27;-0.20;48.30
24260;DHT22;12384;48.112;18.418;2023-02-28T04:02:57;-0.20;48.30
24260;DHT22;12384;48.112;18.418;2023-02-28T04:05:26;-0.10;48.30
24260;DHT22;12384;48.112;18.418;2023-02-28T04:08:03;-0.10;48.30
24260;DHT22;12384;48.112;18.418;2023-02-28T04:10:33;-0.10;48.40
24260;DHT22;12384;48.112;18.418;2023-02-28T04:13:02;-0.10;48.40
24260;DHT22;12384;48.112;18.418;2023-02-28T04:15:30;-0.10;48.30
24260;DHT22;12384;48.112;18.418;2023-02-28T04:17:59;-0.10;48.30
24260;DHT22;12384;48.112;18.418;2023-02-28T04:20:27;-0.10;48.30
24260;DHT22;12384;48.112;18.418;2023-02-28T04:22:56;-0.10;48.30
24260;DHT22;12384;48.112;18.418;2023-02-28T04:25:24;-0.10;48.30
24260;DHT22;12384;48.112;18.418;2023-02-28T04:27:54;-0.10;48.30
24260;DHT22;12384;48.112;18.418;2023-02-28T04:30:23;-0.10;48.30
24260;DHT22;12384;48.112;18.418;2023-02-28T04:32:51;-0.10;48.30
24260;DHT22;12384;48.112;18.418;2023-02-28T04:35:20;-0.10;48.30
24260;DHT22;12384;48.112;18.418;2023-02-28T04:37:48;0.00;48.30
24260;DHT22;12384;48.112;18.418;2023-02-28T04:40:17;0.00;48.90
24260;DHT22;12384;48.112;18.418;2023-02-28T04:42:45;0.00;48.40
24260;DHT22;12384;48.112;18.418;2023-02-28T04:45:15;-0.10;48.90
24260;DHT22;12384;48.112;18.418;2023-02-28T04:47:44;0.00;48.40
24260;DHT22;12384;48.112;18.418;2023-02-28T04:50:12;0.00;48.40
24260;DHT22;12384;48.112;18.418;2023-02-28T04:52:41;0.00;48.40
24260;DHT22;12384;48.112;18.418;2023-02-28T04:55:09;0.00;48.40
24260;DHT22;12384;48.112;18.418;2023-02-28T04:57:38;0.00;48.30
24260;DHT22;12384;48.112;18.418;2023-02-28T05:00:07;0.00;48.30
24260;DHT22;12384;48.112;18.418;2023-02-28T05:02:39;0.00;48.30
24260;DHT22;12384;48.112;18.418;2023-02-28T05:05:08;0.00;48.30
24260;DHT22;12384;48.112;18.418;2023-02-28T05:07:36;0.00;48.30
24260;DHT22;12384;48.112;18.418;2023-02-28T05:10:05;0.00;48.20
24260;DHT22;12384;48.112;18.418;2023-02-28T05:12:34;0.00;48.30
24260;DHT22;12384;48.112;18.418;2023-02-28T05:15:03;0.00;48.20
24260;DHT22;12384;48.112;18.418;2023-02-28T05:17:31;0.00;48.20
24260;DHT22;12384;48.112;18.418;2023-02-28T05:20:01;0.00;48.20
24260;DHT22;12384;48.112;18.418;2023-02-28T05:22:41;0.00;48.20
24260;DHT22;12384;48.112;18.418;2023-02-28T05:25:18;-0.10;48.10
24260;DHT22;12384;48.112;18.418;2023-02-28T05:27:46;0.00;48.10
24260;DHT22;12384;48.112;18.418;2023-02-28T05:30:15;0.00;48.20
24260;DHT22;12384;48.112;18.418;2023-02-28T05:32:43;-0.10;48.10
24260;DHT22;12384;48.112;18.418;2023-02-28T05:35:13;-0.10;48.10
24260;DHT22;12384;48.112;18.418;2023-02-28T05:37:41;-0.10;48.20
24260;DHT22;12384;48.112;18.418;2023-02-28T05:40:12;-0.10;48.20
24260;DHT22;12384;48.112;18.418;2023-02-28T05:42:40;-0.10;48.30
24260;DHT22;12384;48.112;18.418;2023-02-28T05:45:10;-0.10;48.30
24260;DHT22;12384;48.112;18.418;2023-02-28T05:47:41;-0.10;48.30
24260;DHT22;12384;48.112;18.418;2023-02-28T05:50:10;-0.10;48.40
24260;DHT22;12384;48.112;18.418;2023-02-28T05:52:40;-0.10;48.40
24260;DHT22;12384;48.112;18.418;2023-02-28T05:55:09;-0.10;48.50
24260;DHT22;12384;48.112;18.418;2023-02-28T05:57:37;-0.10;48.50
24260;DHT22;12384;48.112;18.418;2023-02-28T06:00:06;-0.10;48.60
24260;DHT22;12384;48.112;18.418;2023-02-28T06:02:39;-0.10;48.70
24260;DHT22;12384;48.112;18.418;2023-02-28T06:05:13;-0.10;48.70
24260;DHT22;12384;48.112;18.418;2023-02-28T06:07:44;0.00;48.80
24260;DHT22;12384;48.112;18.418;2023-02-28T06:10:13;0.00;48.90
24260;DHT22;12384;48.112;18.418;2023-02-28T06:12:41;0.00;48.90
24260;DHT22;12384;48.112;18.418;2023-02-28T06:15:12;0.10;49.00
24260;DHT22;12384;48.112;18.418;2023-02-28T06:17:41;0.10;49.00
24260;DHT22;12384;48.112;18.418;2023-02-28T06:20:11;0.20;49.10
24260;DHT22;12384;48.112;18.418;2023-02-28T06:22:40;0.20;49.10
24260;DHT22;12384;48.112;18.418;2023-02-28T06:25:11;0.20;49.10
24260;DHT22;12384;48.112;18.418;2023-02-28T06:27:39;0.30;49.20
24260;DHT22;12384;48.112;18.418;2023-02-28T06:30:08;0.30;49.20
24260;DHT22;12384;48.112;18.418;2023-02-28T06:32:37;0.40;49.20
24260;DHT22;12384;48.112;18.418;2023-02-28T06:35:06;0.50;49.30
24260;DHT22;12384;48.112;18.418;2023-02-28T06:37:35;0.50;49.20
24260;DHT22;12384;48.112;18.418;2023-02-28T06:40:07;0.60;49.30
24260;DHT22;12384;48.112;18.418;2023-02-28T06:42:37;0.60;49.20
24260;DHT22;12384;48.112;18.418;2023-02-28T06:45:06;0.70;49.30
24260;DHT22;12384;48.112;18.418;2023-02-28T06:47:36;0.80;49.30
24260;DHT22;12384;48.112;18.418;2023-02-28T06:50:07;0.80;49.30
24260;DHT22;12384;48.112;18.418;2023-02-28T06:52:35;0.90;49.40
24260;DHT22;12384;48.112;18.418;2023-02-28T06:55:06;1.00;49.40
24260;DHT22;12384;48.112;18.418;2023-02-28T06:57:37;1.10;49.40
24260;DHT22;12384;48.112;18.418;2023-02-28T07:00:08;1.10;49.40
24260;DHT22;12384;48.112;18.418;2023-02-28T07:02:37;1.20;49.30
24260;DHT22;12384;48.112;18.418;2023-02-28T07:05:06;1.30;49.30
24260;DHT22;12384;48.112;18.418;2023-02-28T07:07:35;1.40;49.30
24260;DHT22;12384;48.112;18.418;2023-02-28T07:10:06;1.40;49.30
24260;DHT22;12384;48.112;18.418;2023-02-28T07:12:34;1.50;49.30
24260;DHT22;12384;48.112;18.418;2023-02-28T07:15:06;1.50;49.30
24260;DHT22;12384;48.112;18.418;2023-02-28T07:17:34;1.60;49.40
24260;DHT22;12384;48.112;18.418;2023-02-28T07:20:03;1.70;49.40
24260;DHT22;12384;48.112;18.418;2023-02-28T07:22:32;1.80;49.40
24260;DHT22;12384;48.112;18.418;2023-02-28T07:25:01;1.80;49.30
24260;DHT22;12384;48.112;18.418;2023-02-28T07:27:29;1.90;49.40
24260;DHT22;12384;48.112;18.418;2023-02-28T07:29:57;2.00;49.50
24260;DHT22;12384;48.112;18.418;2023-02-28T07:32:29;2.10;49.50
24260;DHT22;12384;48.112;18.418;2023-02-28T07:34:58;2.20;49.60
24260;DHT22;12384;48.112;18.418;2023-02-28T07:37:26;2.30;49.70
24260;DHT22;12384;48.112;18.418;2023-02-28T07:39:54;2.40;49.70
24260;DHT22;12384;48.112;18.418;2023-02-28T07:42:23;2.50;49.70
24260;DHT22;12384;48.112;18.418;2023-02-28T07:44:51;2.60;49.70
24260;DHT22;12384;48.112;18.418;2023-02-28T07:47:20;2.70;49.70
24260;DHT22;12384;48.112;18.418;2023-02-28T07:49:52;2.80;49.40
24260;DHT22;12384;48.112;18.418;2023-02-28T07:52:21;2.90;49.00
24260;DHT22;12384;48.112;18.418;2023-02-28T07:54:50;2.90;48.80
24260;DHT22;12384;48.112;18.418;2023-02-28T07:57:19;3.00;48.70
24260;DHT22;12384;48.112;18.418;2023-02-28T07:59:47;3.10;48.40
24260;DHT22;12384;48.112;18.418;2023-02-28T08:02:17;3.20;48.60
24260;DHT22;12384;48.112;18.418;2023-02-28T08:04:46;3.30;48.70
24260;DHT22;12384;48.112;18.418;2023-02-28T08:07:17;3.30;48.40
24260;DHT22;12384;48.112;18.418;2023-02-28T08:09:46;3.40;48.40
24260;DHT22;12384;48.112;18.418;2023-02-28T08:12:14;3.50;48.40
24260;DHT22;12384;48.112;18.418;2023-02-28T08:14:42;3.70;48.70
24260;DHT22;12384;48.112;18.418;2023-02-28T08:17:11;3.80;48.60
24260;DHT22;12384;48.112;18.418;2023-02-28T08:19:40;3.90;48.70
24260;DHT22;12384;48.112;18.418;2023-02-28T08:22:08;4.10;48.70
24260;DHT22;12384;48.112;18.418;2023-02-28T08:24:40;4.30;48.60
24260;DHT22;12384;48.112;18.418;2023-02-28T08:27:09;4.50;48.40
24260;DHT22;12384;48.112;18.418;2023-02-28T08:29:37;4.70;48.30
24260;DHT22;12384;48.112;18.418;2023-02-28T08:32:06;4.90;48.20
24260;DHT22;12384;48.112;18.418;2023-02-28T08:34:43;5.10;48.20
24260;DHT22;12384;48.112;18.418;2023-02-28T08:37:13;5.40;48.20
24260;DHT22;12384;48.112;18.418;2023-02-28T08:39:43;5.60;47.90
24260;DHT22;12384;48.112;18.418;2023-02-28T08:42:12;5.80;47.90
24260;DHT22;12384;48.112;18.418;2023-02-28T08:44:40;5.90;46.70
24260;DHT22;12384;48.112;18.418;2023-02-28T08:47:08;6.20;46.70
24260;DHT22;12384;48.112;18.418;2023-02-28T08:49:37;6.30;46.20
24260;DHT22;12384;48.112;18.418;2023-02-28T08:52:05;6.50;46.00
24260;DHT22;12384;48.112;18.418;2023-02-28T08:54:34;6.70;45.80
24260;DHT22;12384;48.112;18.418;2023-02-28T08:57:04;7.00;45.80
24260;DHT22;12384;48.112;18.418;2023-02-28T08:59:33;7.30;46.10
24260;DHT22;12384;48.112;18.418;2023-02-28T09:02:01;7.70;45.40
24260;DHT22;12384;48.112;18.418;2023-02-28T09:04:30;8.00;45.00
24260;DHT22;12384;48.112;18.418;2023-02-28T09:06:58;8.30;44.20
24260;DHT22;12384;48.112;18.418;2023-02-28T09:09:26;8.60;43.20
24260;DHT22;12384;48.112;18.418;2023-02-28T09:11:55;8.90;42.40
24260;DHT22;12384;48.112;18.418;2023-02-28T09:14:25;9.20;41.50
24260;DHT22;12384;48.112;18.418;2023-02-28T09:16:53;9.60;41.90
24260;DHT22;12384;48.112;18.418;2023-02-28T09:19:22;10.00;40.20
24260;DHT22;12384;48.112;18.418;2023-02-28T09:21:50;10.30;39.20
24260;DHT22;12384;48.112;18.418;2023-02-28T09:24:19;10.70;39.10
24260;DHT22;12384;48.112;18.418;2023-02-28T09:26:48;11.20;39.10
24260;DHT22;12384;48.112;18.418;2023-02-28T09:29:34;11.60;38.90
24260;DHT22;12384;48.112;18.418;2023-02-28T09:32:02;11.90;35.60
24260;DHT22;12384;48.112;18.418;2023-02-28T09:34:33;12.20;35.40
24260;DHT22;12384;48.112;18.418;2023-02-28T09:37:04;12.60;36.30
24260;DHT22;12384;48.112;18.418;2023-02-28T09:39:32;13.20;36.90
24260;DHT22;12384;48.112;18.418;2023-02-28T09:42:02;13.80;35.90
24260;DHT22;12384;48.112;18.418;2023-02-28T09:44:36;14.50;35.40
24260;DHT22;12384;48.112;18.418;2023-02-28T09:47:10;15.20;34.80
24260;DHT22;12384;48.112;18.418;2023-02-28T09:49:43;15.90;34.80
24260;DHT22;12384;48.112;18.418;2023-02-28T09:52:17;16.50;32.80
24260;DHT22;12384;48.112;18.418;2023-02-28T09:54:46;16.90;30.10
24260;DHT22;12384;48.112;18.418;2023-02-28T09:57:19;17.00;29.80
24260;DHT22;12384;48.112;18.418;2023-02-28T10:00:10;17.20;30.10
24260;DHT22;12384;48.112;18.418;2023-02-28T10:02:55;17.50;30.00
24260;DHT22;12384;48.112;18.418;2023-02-28T10:05:27;17.80;28.90
24260;DHT22;12384;48.112;18.418;2023-02-28T10:08:05;17.80;28.20
24260;DHT22;12384;48.112;18.418;2023-02-28T10:10:40;17.90;27.60
24260;DHT22;12384;48.112;18.418;2023-02-28T10:13:26;17.90;27.10
24260;DHT22;12384;48.112;18.418;2023-02-28T10:16:01;17.90;26.50
24260;DHT22;12384;48.112;18.418;2023-02-28T10:18:36;17.70;26.10
24260;DHT22;12384;48.112;18.418;2023-02-28T10:21:13;17.60;25.90
24260;DHT22;12384;48.112;18.418;2023-02-28T10:23:43;17.60;25.70
24260;DHT22;12384;48.112;18.418;2023-02-28T10:26:17;17.50;25.30
24260;DHT22;12384;48.112;18.418;2023-02-28T10:28:46;17.40;25.70
24260;DHT22;12384;48.112;18.418;2023-02-28T10:31:19;17.30;25.80
24260;DHT22;12384;48.112;18.418;2023-02-28T10:33:49;17.40;26.10
24260;DHT22;12384;48.112;18.418;2023-02-28T10:36:20;17.50;25.80
24260;DHT22;12384;48.112;18.418;2023-02-28T10:38:49;17.60;25.30
24260;DHT22;12384;48.112;18.418;2023-02-28T10:41:28;17.70;25.60
24260;DHT22;12384;48.112;18.418;2023-02-28T10:44:14;17.80;25.70
24260;DHT22;12384;48.112;18.418;2023-02-28T10:46:47;18.10;25.80
24260;DHT22;12384;48.112;18.418;2023-02-28T10:49:20;18.20;25.40
24260;DHT22;12384;48.112;18.418;2023-02-28T10:51:51;18.30;25.60
24260;DHT22;12384;48.112;18.418;2023-02-28T10:54:23;18.40;24.90
24260;DHT22;12384;48.112;18.418;2023-02-28T10:57:17;18.40;24.60
24260;DHT22;12384;48.112;18.418;2023-02-28T10:59:47;18.50;24.70
24260;DHT22;12384;48.112;18.418;2023-02-28T11:02:40;18.60;24.40
24260;DHT22;12384;48.112;18.418;2023-02-28T11:05:29;18.60;24.10
24260;DHT22;12384;48.112;18.418;2023-02-28T11:08:14;18.70;24.40
24260;DHT22;12384;48.112;18.418;2023-02-28T11:10:46;18.80;23.70
24260;DHT22;12384;48.112;18.418;2023-02-28T11:13:17;18.80;24.00
24260;DHT22;12384;48.112;18.418;2023-02-28T11:15:51;18.90;24.00
24260;DHT22;12384;48.112;18.418;2023-02-28T11:18:27;19.10;23.90
24260;DHT22;12384;48.112;18.418;2023-02-28T11:20:59;19.20;23.90
24260;DHT22;12384;48.112;18.418;2023-02-28T11:23:31;19.30;23.70
24260;DHT22;12384;48.112;18.418;2023-02-28T11:26:04;19.50;23.60
24260;DHT22;12384;48.112;18.418;2023-02-28T11:28:39;19.50;23.40
24260;DHT22;12384;48.112;18.418;2023-02-28T11:31:18;19.60;23.60
24260;DHT22;12384;48.112;18.418;2023-02-28T11:33:52;19.80;23.70
24260;DHT22;12384;48.112;18.418;2023-02-28T11:36:25;20.00;23.60
24260;DHT22;12384;48.112;18.418;2023-02-28T11:38:55;20.10;23.20
24260;DHT22;12384;48.112;18.418;2023-02-28T11:41:37;20.20;23.20
24260;DHT22;12384;48.112;18.418;2023-02-28T11:44:23;20.30;23.00
24260;DHT22;12384;48.112;18.418;2023-02-28T11:46:58;20.30;23.20
24260;DHT22;12384;48.112;18.418;2023-02-28T11:49:47;20.10;22.80
24260;DHT22;12384;48.112;18.418;2023-02-28T11:52:29;20.00;22.50
24260;DHT22;12384;48.112;18.418;2023-02-28T11:55:11;19.70;22.40
24260;DHT22;12384;48.112;18.418;2023-02-28T11:57:59;19.40;22.40
24260;DHT22;12384;48.112;18.418;2023-02-28T12:00:38;19.20;22.70
24260;DHT22;12384;48.112;18.418;2023-02-28T12:03:19;19.00;22.70
24260;DHT22;12384;48.112;18.418;2023-02-28T12:06:01;18.80;23.00
24260;DHT22;12384;48.112;18.418;2023-02-28T12:08:44;18.80;23.40
24260;DHT22;12384;48.112;18.418;2023-02-28T12:11:23;18.90;23.20
24260;DHT22;12384;48.112;18.418;2023-02-28T12:17:01;18.70;23.10
24260;DHT22;12384;48.112;18.418;2023-02-28T12:19:38;18.60;23.40
24260;DHT22;12384;48.112;18.418;2023-02-28T12:22:23;18.70;23.70
24260;DHT22;12384;48.112;18.418;2023-02-28T12:25:14;18.80;23.70
24260;DHT22;12384;48.112;18.418;2023-02-28T12:27:48;19.00;23.10
24260;DHT22;12384;48.112;18.418;2023-02-28T12:30:21;18.90;22.80
24260;DHT22;12384;48.112;18.418;2023-02-28T12:32:54;18.80;22.70
24260;DHT22;12384;48.112;18.418;2023-02-28T12:35:26;18.70;23.10
24260;DHT22;12384;48.112;18.418;2023-02-28T12:38:03;18.90;23.20
24260;DHT22;12384;48.112;18.418;2023-02-28T12:40:42;19.00;22.80
24260;DHT22;12384;48.112;18.418;2023-02-28T12:43:13;19.20;23.10
24260;DHT22;12384;48.112;18.418;2023-02-28T12:45:46;19.20;22.60
24260;DHT22;12384;48.112;18.418;2023-02-28T12:48:21;19.40;22.90
24260;DHT22;12384;48.112;18.418;2023-02-28T12:50:52;19.60;23.10
24260;DHT22;12384;48.112;18.418;2023-02-28T12:53:27;19.80;23.20
24260;DHT22;12384;48.112;18.418;2023-02-28T12:56:08;20.20;23.00
24260;DHT22;12384;48.112;18.418;2023-02-28T12:58:41;20.40;22.40
24260;DHT22;12384;48.112;18.418;2023-02-28T13:10:20;20.90;22.00
24260;DHT22;12384;48.112;18.418;2023-02-28T13:12:49;21.00;22.60
24260;DHT22;12384;48.112;18.418;2023-02-28T13:15:21;21.10;21.50
24260;DHT22;12384;48.112;18.418;2023-02-28T13:17:53;21.20;22.40
24260;DHT22;12384;48.112;18.418;2023-02-28T13:20:24;21.40;22.60
24260;DHT22;12384;48.112;18.418;2023-02-28T13:22:54;21.80;22.80
24260;DHT22;12384;48.112;18.418;2023-02-28T13:25:52;22.10;22.60
24260;DHT22;12384;48.112;18.418;2023-02-28T13:34:42;22.10;20.80
24260;DHT22;12384;48.112;18.418;2023-02-28T13:37:36;21.60;20.90
24260;DHT22;12384;48.112;18.418;2023-02-28T13:40:33;21.10;20.60
24260;DHT22;12384;48.112;18.418;2023-02-28T13:43:09;20.70;20.90
24260;DHT22;12384;48.112;18.418;2023-02-28T13:45:37;20.40;21.50
24260;DHT22;12384;48.112;18.418;2023-02-28T13:48:17;20.20;21.60
24260;DHT22;12384;48.112;18.418;2023-02-28T13:50:46;20.30;22.30
24260;DHT22;12384;48.112;18.418;2023-02-28T13:53:42;20.40;21.90
24260;DHT22;12384;48.112;18.418;2023-02-28T13:56:24;20.60;21.50
24260;DHT22;12384;48.112;18.418;2023-02-28T13:59:06;20.70;21.60
24260;DHT22;12384;48.112;18.418;2023-02-28T14:02:11;20.90;22.10
24260;DHT22;12384;48.112;18.418;2023-02-28T14:05:06;21.20;21.20
24260;DHT22;12384;48.112;18.418;2023-02-28T14:07:45;21.20;21.90
24260;DHT22;12384;48.112;18.418;2023-02-28T14:10:26;21.20;21.90
24260;DHT22;12384;48.112;18.418;2023-02-28T14:13:02;21.10;21.20
24260;DHT22;12384;48.112;18.418;2023-02-28T14:15:45;20.60;21.10
24260;DHT22;12384;48.112;18.418;2023-02-28T14:18:21;20.20;21.20
24260;DHT22;12384;48.112;18.418;2023-02-28T14:21:01;19.70;21.30
24260;DHT22;12384;48.112;18.418;2023-02-28T14:27:04;18.30;21.70
24260;DHT22;12384;48.112;18.418;2023-02-28T14:30:15;17.60;22.10
24260;DHT22;12384;48.112;18.418;2023-02-28T14:32:54;17.00;22.60
24260;DHT22;12384;48.112;18.418;2023-02-28T14:35:43;16.70;23.30
24260;DHT22;12384;48.112;18.418;2023-02-28T14:38:17;16.70;23.50
24260;DHT22;12384;48.112;18.418;2023-02-28T14:40:51;16.60;23.30
24260;DHT22;12384;48.112;18.418;2023-02-28T14:43:22;16.40;23.30
24260;DHT22;12384;48.112;18.418;2023-02-28T14:45:52;16.00;23.60
24260;DHT22;12384;48.112;18.418;2023-02-28T14:48:24;15.50;23.10
24260;DHT22;12384;48.112;18.418;2023-02-28T14:50:55;15.00;23.30
24260;DHT22;12384;48.112;18.418;2023-02-28T14:53:27;14.50;23.50
24260;DHT22;12384;48.112;18.418;2023-02-28T14:55:56;13.90;23.80
24260;DHT22;12384;48.112;18.418;2023-02-28T14:58:27;13.40;24.10
24260;DHT22;12384;48.112;18.418;2023-02-28T15:00:57;13.00;24.40
24260;DHT22;12384;48.112;18.418;2023-02-28T15:03:31;12.60;24.80
24260;DHT22;12384;48.112;18.418;2023-02-28T15:06:01;12.20;25.00
24260;DHT22;12384;48.112;18.418;2023-02-28T15:08:31;11.90;25.30
24260;DHT22;12384;48.112;18.418;2023-02-28T15:11:06;11.60;25.60
24260;DHT22;12384;48.112;18.418;2023-02-28T15:13:39;11.50;26.80
24260;DHT22;12384;48.112;18.418;2023-02-28T15:16:10;11.50;27.50
24260;DHT22;12384;48.112;18.418;2023-02-28T15:18:49;11.70;27.50
24260;DHT22;12384;48.112;18.418;2023-02-28T15:21:21;12.00;27.30
24260;DHT22;12384;48.112;18.418;2023-02-28T15:23:53;12.10;27.00
24260;DHT22;12384;48.112;18.418;2023-02-28T15:26:27;12.20;27.00
24260;DHT22;12384;48.112;18.418;2023-02-28T15:29:00;12.30;27.40
24260;DHT22;12384;48.112;18.418;2023-02-28T15:31:32;12.50;27.50
24260;DHT22;12384;48.112;18.418;2023-02-28T15:34:27;12.70;27.50
24260;DHT22;12384;48.112;18.418;2023-02-28T15:37:30;12.90;27.10
24260;DHT22;12384;48.112;18.418;2023-02-28T15:40:11;12.80;26.70
24260;DHT22;12384;48.112;18.418;2023-02-28T15:42:40;12.60;26.50
24260;DHT22;12384;48.112;18.418;2023-02-28T15:45:33;12.40;26.40
24260;DHT22;12384;48.112;18.418;2023-02-28T15:48:05;12.00;26.40
24260;DHT22;12384;48.112;18.418;2023-02-28T15:50:42;11.70;26.40
24260;DHT22;12384;48.112;18.418;2023-02-28T15:53:15;11.40;26.50
24260;DHT22;12384;48.112;18.418;2023-02-28T15:55:45;11.10;26.50
24260;DHT22;12384;48.112;18.418;2023-02-28T15:58:13;10.70;26.60
24260;DHT22;12384;48.112;18.418;2023-02-28T16:00:44;10.40;26.80
24260;DHT22;12384;48.112;18.418;2023-02-28T16:03:23;10.10;27.10
24260;DHT22;12384;48.112;18.418;2023-02-28T16:06:21;9.80;27.90
24260;DHT22;12384;48.112;18.418;2023-02-28T16:08:52;9.50;28.20
24260;DHT22;12384;48.112;18.418;2023-02-28T16:11:21;9.20;28.50
24260;DHT22;12384;48.112;18.418;2023-02-28T16:13:50;8.90;28.70
24260;DHT22;12384;48.112;18.418;2023-02-28T16:16:21;8.70;28.90
24260;DHT22;12384;48.112;18.418;2023-02-28T16:18:51;8.50;29.30
24260;DHT22;12384;48.112;18.418;2023-02-28T16:21:25;8.30;29.70
24260;DHT22;12384;48.112;18.418;2023-02-28T16:23:54;8.10;30.00
24260;DHT22;12384;48.112;18.418;2023-02-28T16:26:24;7.90;30.20
24260;DHT22;12384;48.112;18.418;2023-02-28T16:28:54;7.70;30.30